createdAt,value
2023-01-13T00:01:18.291Z,13.70
2023-01-13T00:05:21.631Z,12.90
2023-01-13T00:09:25.169Z,11.30
2023-01-13T00:13:28.528Z,12.90
2023-01-13T00:17:31.888Z,13.70
2023-01-13T00:21:36.026Z,12.50
2023-01-13T00:25:39.461Z,12.40
2023-01-13T00:29:42.826Z,11.50
2023-01-13T00:33:46.911Z,11.70
2023-01-13T00:37:50.228Z,11.70
2023-01-13T00:42:11.984Z,13.10
2023-01-13T00:46:18.367Z,12.50
2023-01-13T00:50:21.744Z,13.10
2023-01-13T00:54:25.796Z,13.20
2023-01-13T00:58:31.194Z,13.70
2023-01-13T01:02:34.570Z,12.30
2023-01-13T01:06:38.322Z,12.30
2023-01-13T01:10:41.834Z,12.10
2023-01-13T01:14:45.311Z,12.80
2023-01-13T01:18:50.500Z,11.70
2023-01-13T01:22:53.843Z,12.40
2023-01-13T01:26:57.175Z,13.30
2023-01-13T01:31:00.690Z,11.90
2023-01-13T01:35:05.208Z,11.10
2023-01-13T01:39:08.610Z,11.70
2023-01-13T01:43:39.999Z,11.40
2023-01-13T01:47:43.596Z,13.70
2023-01-13T01:51:59.018Z,11.30
2023-01-13T01:56:03.778Z,11.40
2023-01-13T02:00:07.958Z,11.40
2023-01-13T02:04:23.527Z,11.50
2023-01-13T02:08:26.868Z,10.60
2023-01-13T02:12:30.594Z,12.10
2023-01-13T02:16:34.131Z,9.90
2023-01-13T02:20:56.889Z,12.20
2023-01-13T02:25:20.678Z,9.80
2023-01-13T02:30:04.963Z,9.70
2023-01-13T02:34:20.967Z,9.40
2023-01-13T02:38:31.783Z,11.00
2023-01-13T02:42:59.604Z,9.70
2023-01-13T02:47:19.211Z,10.60
2023-01-13T02:51:27.374Z,9.30
2023-01-13T02:55:36.554Z,10.40
2023-01-13T02:59:41.216Z,10.60
2023-01-13T03:03:44.866Z,10.10
2023-01-13T03:08:15.881Z,9.70
2023-01-13T03:12:32.870Z,10.60
2023-01-13T03:16:58.509Z,10.90
2023-01-13T03:21:11.997Z,9.30
2023-01-13T03:25:26.484Z,9.90
2023-01-13T03:30:14.409Z,10.90
2023-01-13T03:34:22.727Z,9.70
2023-01-13T03:38:32.991Z,9.10
2023-01-13T03:42:38.607Z,10.20
2023-01-13T03:46:45.221Z,8.80
2023-01-13T03:50:52.462Z,8.80
2023-01-13T03:55:02.044Z,9.50
2023-01-13T03:59:08.270Z,9.20
2023-01-13T04:03:20.316Z,9.10
2023-01-13T04:07:38.869Z,9.40
2023-01-13T04:11:59.176Z,9.00
2023-01-13T04:16:02.729Z,9.30
2023-01-13T04:20:06.653Z,8.50
2023-01-13T04:24:10.285Z,9.80
2023-01-13T04:28:14.633Z,7.90
2023-01-13T04:32:18.039Z,9.30
2023-01-13T04:36:25.453Z,8.60
2023-01-13T04:40:28.739Z,9.60
2023-01-13T04:44:35.484Z,10.20
2023-01-13T04:48:38.764Z,8.80
2023-01-13T04:52:42.023Z,8.90
2023-01-13T04:56:45.327Z,8.60
2023-01-13T05:00:50.885Z,8.50
2023-01-13T05:04:54.245Z,8.40
2023-01-13T05:08:57.648Z,8.30
2023-01-13T05:13:19.653Z,9.90
2023-01-13T05:17:25.357Z,9.60
2023-01-13T05:21:46.980Z,7.50
2023-01-13T05:25:51.319Z,8.40
2023-01-13T05:29:56.488Z,7.70
2023-01-13T05:33:59.812Z,7.50
2023-01-13T05:38:03.091Z,8.20
2023-01-13T05:42:25.240Z,8.40
2023-01-13T05:46:28.565Z,8.10
2023-01-13T05:50:31.927Z,8.40
2023-01-13T05:54:41.426Z,8.70
2023-01-13T05:58:45.061Z,8.10
2023-01-13T06:02:49.881Z,8.90
2023-01-13T06:06:53.268Z,7.60
2023-01-13T06:10:56.752Z,8.00
2023-01-13T06:14:59.997Z,8.10
2023-01-13T06:19:03.294Z,7.20
2023-01-13T06:23:11.020Z,7.60
2023-01-13T06:27:15.636Z,7.70
2023-01-13T06:31:19.799Z,7.50
2023-01-13T06:35:28.691Z,6.60
2023-01-13T06:39:32.449Z,6.80
2023-01-13T06:43:36.115Z,7.10
2023-01-13T06:47:41.142Z,7.60
2023-01-13T06:51:44.456Z,7.30
2023-01-13T06:55:47.740Z,6.10
2023-01-13T06:59:51.081Z,6.40
2023-01-13T07:03:54.325Z,6.10
2023-01-13T07:07:57.596Z,5.10
2023-01-13T07:12:00.866Z,6.80
2023-01-13T07:16:06.602Z,5.90
2023-01-13T07:20:10.870Z,6.50
2023-01-13T07:24:14.258Z,5.70
2023-01-13T07:28:17.950Z,5.50
2023-01-13T07:32:21.568Z,5.60
2023-01-13T07:36:24.798Z,5.30
2023-01-13T07:40:28.154Z,6.20
2023-01-13T07:44:31.591Z,5.40
2023-01-13T07:48:35.356Z,6.70
2023-01-13T07:52:38.677Z,5.00
2023-01-13T07:56:41.975Z,5.00
2023-01-13T08:00:45.219Z,5.90
2023-01-13T08:04:48.482Z,5.60
2023-01-13T08:08:52.036Z,5.20
2023-01-13T08:13:13.986Z,5.20
2023-01-13T08:17:19.157Z,5.50
2023-01-13T08:21:23.761Z,5.00
2023-01-13T08:25:28.728Z,5.90
2023-01-13T08:29:32.046Z,5.00
2023-01-13T08:33:38.044Z,5.20
2023-01-13T08:37:41.708Z,5.30
2023-01-13T08:41:57.792Z,6.10
2023-01-13T08:46:05.015Z,4.70
2023-01-13T08:50:09.370Z,5.40
2023-01-13T08:54:13.468Z,5.30
2023-01-13T08:58:16.729Z,5.00
2023-01-13T09:02:22.147Z,5.90
2023-01-13T09:06:25.457Z,5.00
2023-01-13T09:10:28.702Z,5.40
2023-01-13T09:14:34.549Z,4.60
2023-01-13T09:18:37.764Z,5.40
2023-01-13T09:22:41.709Z,4.50
2023-01-13T09:26:45.161Z,5.10
2023-01-13T09:30:48.393Z,5.30
2023-01-13T09:35:00.833Z,5.60
2023-01-13T09:39:04.508Z,4.80
2023-01-13T09:43:36.038Z,4.60
2023-01-13T09:47:51.484Z,4.60
2023-01-13T09:52:12.426Z,6.40
2023-01-13T09:56:15.736Z,4.40
2023-01-13T10:00:25.626Z,4.70
2023-01-13T10:04:28.929Z,3.90
2023-01-13T10:08:35.674Z,4.50
2023-01-13T10:12:58.509Z,5.80
2023-01-13T10:17:23.852Z,4.40
2023-01-13T10:21:49.011Z,4.20
2023-01-13T10:26:24.321Z,4.40
2023-01-13T10:30:34.388Z,5.30
2023-01-13T10:34:51.662Z,4.20
2023-01-13T10:39:08.807Z,5.00
2023-01-13T10:43:12.043Z,5.70
2023-01-13T10:47:22.931Z,4.50
2023-01-13T10:55:37.165Z,5.10
2023-01-13T10:59:40.408Z,5.20
2023-01-13T11:03:45.433Z,5.50
2023-01-13T11:07:52.767Z,5.70
2023-01-13T11:11:57.338Z,6.10
2023-01-13T11:16:14.181Z,10.00
2023-01-13T11:20:46.806Z,12.40
2023-01-13T11:24:59.040Z,11.50
2023-01-13T11:29:17.991Z,11.60
2023-01-13T11:34:11.010Z,9.50
2023-01-13T11:38:31.237Z,9.70
2023-01-13T11:42:59.359Z,9.20
2023-01-13T11:47:02.982Z,6.50
2023-01-13T11:51:15.284Z,6.90
2023-01-13T11:55:47.710Z,6.20
2023-01-13T12:00:12.384Z,5.10
2023-01-13T12:04:23.813Z,5.20
2023-01-13T12:08:54.927Z,6.00
2023-01-13T12:13:40.615Z,5.40
2023-01-13T12:17:56.228Z,6.10
2023-01-13T12:22:11.808Z,7.60
2023-01-13T12:26:17.225Z,31.70
2023-01-13T12:30:46.021Z,19.80
2023-01-13T12:35:27.741Z,18.70
2023-01-13T12:39:58.990Z,15.60
2023-01-13T12:44:18.261Z,8.00
2023-01-13T12:52:49.740Z,8.10
2023-01-13T12:56:54.243Z,8.00
2023-01-13T13:01:01.028Z,9.10
2023-01-13T13:05:23.152Z,7.90
2023-01-13T13:09:31.924Z,9.00
2023-01-13T13:18:13.973Z,7.40
2023-01-13T13:22:21.216Z,6.60
2023-01-13T13:26:37.155Z,7.60
2023-01-13T13:30:50.354Z,7.60
2023-01-13T13:35:05.679Z,6.80
2023-01-13T13:39:41.213Z,7.30
2023-01-13T13:44:05.103Z,7.30
2023-01-13T13:48:28.091Z,8.00
2023-01-13T13:52:42.774Z,9.10
2023-01-13T13:56:47.944Z,8.70
2023-01-13T14:00:51.477Z,10.60
2023-01-13T14:05:19.181Z,12.70
2023-01-13T14:09:23.944Z,9.60
2023-01-13T14:13:29.624Z,9.80
2023-01-13T14:17:34.770Z,10.10
2023-01-13T14:21:38.741Z,7.90
2023-01-13T14:25:52.363Z,10.00
2023-01-13T14:29:58.521Z,9.60
2023-01-13T14:34:31.196Z,10.20
2023-01-13T14:38:27.009Z,12.60
2023-01-13T14:42:31.756Z,45.50
2023-01-13T14:46:40.496Z,21.70
2023-01-13T14:50:46.778Z,14.00
2023-01-13T14:54:53.170Z,14.20
2023-01-13T14:58:56.741Z,15.10
2023-01-13T15:03:08.448Z,15.60
2023-01-13T15:07:26.573Z,14.90
2023-01-13T15:11:29.951Z,13.10
2023-01-13T15:15:35.458Z,14.20
2023-01-13T15:19:38.738Z,11.80
2023-01-13T15:23:42.854Z,12.30
2023-01-13T15:27:50.859Z,12.10
2023-01-13T15:31:54.183Z,12.00
2023-01-13T15:35:57.549Z,13.00
2023-01-13T15:40:01.013Z,10.60
2023-01-13T15:44:23.118Z,10.30
2023-01-13T15:48:30.946Z,10.20
2023-01-13T15:52:34.266Z,9.40
2023-01-13T15:56:39.362Z,9.50
2023-01-13T16:00:43.119Z,9.40
2023-01-13T16:04:46.420Z,10.40
2023-01-13T16:08:49.699Z,10.20
2023-01-13T16:12:55.953Z,9.60
2023-01-13T16:16:59.530Z,9.60
2023-01-13T16:21:02.812Z,10.10
2023-01-13T16:25:06.504Z,10.00
2023-01-13T16:29:09.979Z,11.00
2023-01-13T16:33:13.736Z,11.50
2023-01-13T16:37:23.084Z,9.40
2023-01-13T16:41:26.960Z,11.90
2023-01-13T16:45:31.373Z,10.20
2023-01-13T16:49:35.128Z,9.00
2023-01-13T16:53:38.532Z,10.00
2023-01-13T16:57:42.411Z,8.70
2023-01-13T17:01:46.013Z,10.50
2023-01-13T17:05:49.282Z,10.00
2023-01-13T17:09:52.937Z,9.10
2023-01-13T17:13:56.309Z,9.00
2023-01-13T17:17:59.538Z,9.80
2023-01-13T17:22:02.828Z,9.80
2023-01-13T17:26:06.375Z,10.20
2023-01-13T17:30:11.315Z,10.20
2023-01-13T17:34:15.145Z,9.90
2023-01-13T17:38:18.478Z,10.60
2023-01-13T17:42:24.609Z,9.80
2023-01-13T17:46:28.205Z,9.30
2023-01-13T17:50:34.345Z,9.80
2023-01-13T17:54:37.989Z,9.30
2023-01-13T17:58:42.323Z,9.30
2023-01-13T18:02:46.099Z,9.20
2023-01-13T18:06:50.505Z,10.20
2023-01-13T18:10:55.373Z,9.40
2023-01-13T18:14:59.840Z,10.00
2023-01-13T18:19:22.947Z,9.10
2023-01-13T18:23:45.178Z,10.50
2023-01-13T18:27:48.810Z,9.70
2023-01-13T18:31:52.970Z,9.60
2023-01-13T18:35:56.655Z,9.40
2023-01-13T18:40:00.283Z,9.90
2023-01-13T18:44:03.867Z,10.10
2023-01-13T18:48:07.413Z,11.20
2023-01-13T18:52:11.270Z,10.30
2023-01-13T18:56:14.668Z,9.50
2023-01-13T19:00:20.603Z,10.50
2023-01-13T19:04:24.025Z,11.40
2023-01-13T19:08:27.573Z,11.00
2023-01-13T19:12:31.255Z,11.20
2023-01-13T19:16:35.101Z,11.10
2023-01-13T19:20:38.445Z,10.50
2023-01-13T19:24:44.637Z,9.50
2023-01-13T19:28:48.870Z,11.60
2023-01-13T19:32:54.084Z,11.60
2023-01-13T19:36:57.911Z,10.40
2023-01-13T19:41:07.051Z,10.40
2023-01-13T19:45:29.719Z,10.50
2023-01-13T19:49:33.884Z,11.10
2023-01-13T19:53:37.181Z,11.50
2023-01-13T19:57:41.125Z,14.00
2023-01-13T20:01:44.639Z,11.40
2023-01-13T20:05:48.083Z,12.20
2023-01-13T20:09:56.438Z,11.20
2023-01-13T20:14:01.264Z,10.50
2023-01-13T20:18:04.673Z,12.00
2023-01-13T20:22:09.216Z,11.50
2023-01-13T20:26:12.523Z,11.00
2023-01-13T20:30:16.171Z,10.70
2023-01-13T20:34:19.993Z,11.10
2023-01-13T20:38:23.251Z,11.00
2023-01-13T20:42:29.439Z,11.10
2023-01-13T20:46:32.921Z,11.80
2023-01-13T20:50:36.170Z,11.20
2023-01-13T20:54:41.024Z,11.30
2023-01-13T20:58:44.425Z,10.50
2023-01-13T21:02:47.812Z,12.50
2023-01-13T21:06:51.274Z,11.20
2023-01-13T21:11:04.689Z,10.40
2023-01-13T21:15:17.909Z,12.40
2023-01-13T21:19:21.203Z,10.30
2023-01-13T21:23:24.515Z,10.70
2023-01-13T21:27:28.162Z,11.60
2023-01-13T21:31:31.503Z,10.80
2023-01-13T21:35:39.005Z,10.10
2023-01-13T21:39:43.203Z,10.70
2023-01-13T21:44:05.822Z,9.60
2023-01-13T21:48:09.444Z,10.60
2023-01-13T21:52:13.883Z,10.40
2023-01-13T21:56:17.129Z,9.50
2023-01-13T22:00:22.621Z,11.20
2023-01-13T22:04:25.952Z,12.30
2023-01-13T22:08:29.402Z,10.70
2023-01-13T22:12:32.848Z,10.80
2023-01-13T22:16:39.515Z,12.60
2023-01-13T22:20:42.787Z,10.60
2023-01-13T22:24:47.923Z,11.00
2023-01-13T22:28:51.824Z,14.00
2023-01-13T22:32:55.249Z,10.80
2023-01-13T22:36:59.708Z,11.20
2023-01-13T22:41:09.107Z,11.80
2023-01-13T22:45:13.684Z,12.10
2023-01-13T22:49:17.934Z,12.80
2023-01-13T22:53:21.969Z,11.50
2023-01-13T22:57:25.179Z,14.80
2023-01-13T23:01:31.122Z,11.40
2023-01-13T23:05:34.923Z,11.30
2023-01-13T23:09:38.124Z,11.30
2023-01-13T23:13:43.448Z,10.30
2023-01-13T23:17:50.461Z,10.90
2023-01-13T23:21:53.784Z,9.80
2023-01-13T23:25:57.020Z,11.30
2023-01-13T23:30:01.504Z,11.30
2023-01-13T23:34:04.954Z,11.30
2023-01-13T23:38:08.150Z,11.90
2023-01-13T23:42:11.385Z,11.40
2023-01-13T23:46:16.768Z,12.20
2023-01-13T23:50:20.008Z,12.60
2023-01-13T23:54:23.316Z,11.20
2023-01-13T23:58:27.996Z,11.80
